Baldwin, Iowa
Current Conditions -  °F | °C
As of 4:55 AM on Sunday 23 Nov 2014 (Local Time) from KMXO Reporting Station
Haze Haze  
Wind Chill: 50°   Ceiling: 400
Heat Index: 50°   Visibility: 3mi
Dew Point: 50°   Wind: 13mph
Humidity: 100%   Direction: 180°S
Pressure: 29.63"   Gusts: NA
Location:  42.07°N, 90.84°W
Report Text: KMXO 231055Z AUTO 18011KT 3SM BR OVC004 10/10 A2963 RMK AO2
Loading
Personal Weather Stations






























Interactive Weather Map New forecast layout! Learn more

10-Day Weather Forecast

Advertisements
Track Severe Weather on mobile